sensor_id;sensor_type;location;lat;lon;timestamp;temperature;humidity
7512;DHT22;9999;48.780;9.146;2023-06-22T00:01:17;21.00;99.90
7512;DHT22;9999;48.780;9.146;2023-06-22T00:03:43;21.00;99.90
7512;DHT22;9999;48.780;9.146;2023-06-22T00:06:12;21.00;99.90
7512;DHT22;9999;48.780;9.146;2023-06-22T00:08:39;21.10;99.90
7512;DHT22;9999;48.780;9.146;2023-06-22T00:11:06;21.10;99.90
7512;DHT22;9999;48.780;9.146;2023-06-22T00:13:33;21.10;99.90
7512;DHT22;9999;48.780;9.146;2023-06-22T00:16:00;21.00;99.90
7512;DHT22;9999;48.780;9.146;2023-06-22T00:18:27;21.00;99.90
7512;DHT22;9999;48.780;9.146;2023-06-22T00:20:56;21.10;99.90
7512;DHT22;9999;48.780;9.146;2023-06-22T00:23:27;21.00;99.90
7512;DHT22;9999;48.780;9.146;2023-06-22T00:25:57;21.00;99.90
7512;DHT22;9999;48.780;9.146;2023-06-22T00:28:23;21.00;99.90
7512;DHT22;9999;48.780;9.146;2023-06-22T00:30:50;21.00;99.90
7512;DHT22;9999;48.780;9.146;2023-06-22T00:33:18;21.00;99.90
7512;DHT22;9999;48.780;9.146;2023-06-22T00:35:44;20.90;99.90
7512;DHT22;9999;48.780;9.146;2023-06-22T00:38:11;20.90;99.90
7512;DHT22;9999;48.780;9.146;2023-06-22T00:40:42;21.10;99.90
7512;DHT22;9999;48.780;9.146;2023-06-22T00:43:09;21.10;99.90
7512;DHT22;9999;48.780;9.146;2023-06-22T00:45:36;20.90;99.90
7512;DHT22;9999;48.780;9.146;2023-06-22T00:48:03;21.00;99.90
7512;DHT22;9999;48.780;9.146;2023-06-22T00:50:32;20.90;99.90
7512;DHT22;9999;48.780;9.146;2023-06-22T00:53:03;20.80;99.90
7512;DHT22;9999;48.780;9.146;2023-06-22T00:55:34;21.00;99.90
7512;DHT22;9999;48.780;9.146;2023-06-22T00:58:04;20.80;99.90
7512;DHT22;9999;48.780;9.146;2023-06-22T01:00:35;20.70;99.90
7512;DHT22;9999;48.780;9.146;2023-06-22T01:03:03;20.70;99.90
7512;DHT22;9999;48.780;9.146;2023-06-22T01:05:34;20.70;99.90
7512;DHT22;9999;48.780;9.146;2023-06-22T01:08:25;20.60;99.90
7512;DHT22;9999;48.780;9.146;2023-06-22T01:10:59;20.40;99.90
7512;DHT22;9999;48.780;9.146;2023-06-22T01:13:37;20.40;99.90
7512;DHT22;9999;48.780;9.146;2023-06-22T01:16:10;20.40;99.90
7512;DHT22;9999;48.780;9.146;2023-06-22T01:18:41;20.50;99.90
7512;DHT22;9999;48.780;9.146;2023-06-22T01:21:12;20.30;99.90
7512;DHT22;9999;48.780;9.146;2023-06-22T01:23:51;20.30;99.90
7512;DHT22;9999;48.780;9.146;2023-06-22T01:26:22;20.40;99.90
7512;DHT22;9999;48.780;9.146;2023-06-22T01:28:55;20.50;99.90
7512;DHT22;9999;48.780;9.146;2023-06-22T01:31:26;20.50;99.90
7512;DHT22;9999;48.780;9.146;2023-06-22T01:33:59;20.40;99.90
7512;DHT22;9999;48.780;9.146;2023-06-22T01:36:26;20.40;99.90
7512;DHT22;9999;48.780;9.146;2023-06-22T01:38:54;20.50;99.90
7512;DHT22;9999;48.780;9.146;2023-06-22T01:41:21;20.60;99.90
7512;DHT22;9999;48.780;9.146;2023-06-22T01:43:48;20.30;99.90
7512;DHT22;9999;48.780;9.146;2023-06-22T01:46:18;20.30;99.90
7512;DHT22;9999;48.780;9.146;2023-06-22T01:48:46;20.50;99.90
7512;DHT22;9999;48.780;9.146;2023-06-22T01:51:13;20.50;99.90
7512;DHT22;9999;48.780;9.146;2023-06-22T01:53:40;20.60;99.90
7512;DHT22;9999;48.780;9.146;2023-06-22T01:56:08;20.60;99.90
7512;DHT22;9999;48.780;9.146;2023-06-22T01:58:38;20.50;99.90
7512;DHT22;9999;48.780;9.146;2023-06-22T02:01:10;20.50;99.90
7512;DHT22;9999;48.780;9.146;2023-06-22T02:03:43;20.50;99.90
7512;DHT22;9999;48.780;9.146;2023-06-22T02:06:16;20.40;99.90
7512;DHT22;9999;48.780;9.146;2023-06-22T02:08:49;20.40;99.90
7512;DHT22;9999;48.780;9.146;2023-06-22T02:11:18;20.40;99.90
7512;DHT22;9999;48.780;9.146;2023-06-22T02:13:46;20.50;99.90
7512;DHT22;9999;48.780;9.146;2023-06-22T02:16:14;20.50;99.90
7512;DHT22;9999;48.780;9.146;2023-06-22T02:18:47;20.60;99.90
7512;DHT22;9999;48.780;9.146;2023-06-22T02:21:17;20.50;99.90
7512;DHT22;9999;48.780;9.146;2023-06-22T02:23:43;20.50;99.90
7512;DHT22;9999;48.780;9.146;2023-06-22T02:26:10;20.40;99.90
7512;DHT22;9999;48.780;9.146;2023-06-22T02:28:37;20.30;99.90
7512;DHT22;9999;48.780;9.146;2023-06-22T02:31:04;20.30;99.90
7512;DHT22;9999;48.780;9.146;2023-06-22T02:33:31;20.30;99.90
7512;DHT22;9999;48.780;9.146;2023-06-22T02:35:59;20.30;99.90
7512;DHT22;9999;48.780;9.146;2023-06-22T02:38:30;20.10;99.90
7512;DHT22;9999;48.780;9.146;2023-06-22T02:41:00;20.10;99.90
7512;DHT22;9999;48.780;9.146;2023-06-22T02:43:27;20.10;99.90
7512;DHT22;9999;48.780;9.146;2023-06-22T02:45:54;20.00;99.90
7512;DHT22;9999;48.780;9.146;2023-06-22T02:48:20;20.00;99.90
7512;DHT22;9999;48.780;9.146;2023-06-22T02:50:47;20.10;99.90
7512;DHT22;9999;48.780;9.146;2023-06-22T02:53:16;20.20;99.90
7512;DHT22;9999;48.780;9.146;2023-06-22T02:55:45;20.00;99.90
7512;DHT22;9999;48.780;9.146;2023-06-22T02:58:12;19.90;99.90
7512;DHT22;9999;48.780;9.146;2023-06-22T03:00:39;19.90;99.90
7512;DHT22;9999;48.780;9.146;2023-06-22T03:03:06;19.90;99.90
7512;DHT22;9999;48.780;9.146;2023-06-22T03:05:33;20.00;99.90
7512;DHT22;9999;48.780;9.146;2023-06-22T03:08:01;20.10;99.90
7512;DHT22;9999;48.780;9.146;2023-06-22T03:10:32;20.10;99.90
7512;DHT22;9999;48.780;9.146;2023-06-22T03:12:59;20.10;99.90
7512;DHT22;9999;48.780;9.146;2023-06-22T03:15:26;20.00;99.90
7512;DHT22;9999;48.780;9.146;2023-06-22T03:17:55;20.00;99.90
7512;DHT22;9999;48.780;9.146;2023-06-22T03:20:23;20.00;99.90
7512;DHT22;9999;48.780;9.146;2023-06-22T03:22:50;20.00;99.90
7512;DHT22;9999;48.780;9.146;2023-06-22T03:25:17;19.90;99.90
7512;DHT22;9999;48.780;9.146;2023-06-22T03:27:48;19.80;99.90
7512;DHT22;9999;48.780;9.146;2023-06-22T03:30:15;19.90;99.90
7512;DHT22;9999;48.780;9.146;2023-06-22T03:32:41;19.90;99.90
7512;DHT22;9999;48.780;9.146;2023-06-22T03:35:09;19.90;99.90
7512;DHT22;9999;48.780;9.146;2023-06-22T03:37:38;20.00;99.90
7512;DHT22;9999;48.780;9.146;2023-06-22T03:40:06;20.00;99.90
7512;DHT22;9999;48.780;9.146;2023-06-22T03:42:34;20.00;99.90
7512;DHT22;9999;48.780;9.146;2023-06-22T03:45:04;19.90;99.90
7512;DHT22;9999;48.780;9.146;2023-06-22T03:47:32;19.90;99.90
7512;DHT22;9999;48.780;9.146;2023-06-22T03:49:58;19.90;99.90
7512;DHT22;9999;48.780;9.146;2023-06-22T03:52:25;19.90;99.90
7512;DHT22;9999;48.780;9.146;2023-06-22T03:54:52;19.80;99.90
7512;DHT22;9999;48.780;9.146;2023-06-22T03:57:19;19.70;99.90
7512;DHT22;9999;48.780;9.146;2023-06-22T03:59:46;19.70;99.90
7512;DHT22;9999;48.780;9.146;2023-06-22T04:02:14;19.70;99.90
7512;DHT22;9999;48.780;9.146;2023-06-22T04:04:41;19.70;99.90
7512;DHT22;9999;48.780;9.146;2023-06-22T04:07:08;19.80;99.90
7512;DHT22;9999;48.780;9.146;2023-06-22T04:09:34;19.80;99.90
7512;DHT22;9999;48.780;9.146;2023-06-22T04:12:01;19.80;99.90
7512;DHT22;9999;48.780;9.146;2023-06-22T04:14:28;19.70;99.90
7512;DHT22;9999;48.780;9.146;2023-06-22T04:16:55;19.80;99.90
7512;DHT22;9999;48.780;9.146;2023-06-22T04:19:23;19.70;99.90
7512;DHT22;9999;48.780;9.146;2023-06-22T04:21:51;19.70;99.90
7512;DHT22;9999;48.780;9.146;2023-06-22T04:24:18;19.70;99.90
7512;DHT22;9999;48.780;9.146;2023-06-22T04:26:44;19.70;99.90
7512;DHT22;9999;48.780;9.146;2023-06-22T04:29:13;19.80;99.90
7512;DHT22;9999;48.780;9.146;2023-06-22T04:31:40;19.80;99.90
7512;DHT22;9999;48.780;9.146;2023-06-22T04:34:08;19.80;99.90
7512;DHT22;9999;48.780;9.146;2023-06-22T04:36:38;19.80;99.90
7512;DHT22;9999;48.780;9.146;2023-06-22T04:39:07;19.80;99.90
7512;DHT22;9999;48.780;9.146;2023-06-22T04:41:35;19.90;99.90
7512;DHT22;9999;48.780;9.146;2023-06-22T04:44:10;19.90;99.90
7512;DHT22;9999;48.780;9.146;2023-06-22T04:46:37;19.90;99.90
7512;DHT22;9999;48.780;9.146;2023-06-22T04:49:05;19.90;99.90
7512;DHT22;9999;48.780;9.146;2023-06-22T04:51:42;19.90;99.90
7512;DHT22;9999;48.780;9.146;2023-06-22T04:54:09;19.80;99.90
7512;DHT22;9999;48.780;9.146;2023-06-22T04:56:36;19.70;99.90
7512;DHT22;9999;48.780;9.146;2023-06-22T04:59:06;19.70;99.90
7512;DHT22;9999;48.780;9.146;2023-06-22T05:01:33;19.70;99.90
7512;DHT22;9999;48.780;9.146;2023-06-22T05:04:00;19.70;99.90
7512;DHT22;9999;48.780;9.146;2023-06-22T05:06:29;19.70;99.90
7512;DHT22;9999;48.780;9.146;2023-06-22T05:08:57;19.70;99.90
7512;DHT22;9999;48.780;9.146;2023-06-22T05:11:25;19.70;99.90
7512;DHT22;9999;48.780;9.146;2023-06-22T05:13:52;19.70;99.90
7512;DHT22;9999;48.780;9.146;2023-06-22T05:16:19;19.70;99.90
7512;DHT22;9999;48.780;9.146;2023-06-22T05:18:50;19.70;99.90
7512;DHT22;9999;48.780;9.146;2023-06-22T05:21:16;19.80;99.90
7512;DHT22;9999;48.780;9.146;2023-06-22T05:23:43;19.80;99.90
7512;DHT22;9999;48.780;9.146;2023-06-22T05:26:11;19.90;99.90
7512;DHT22;9999;48.780;9.146;2023-06-22T05:28:38;20.00;99.90
7512;DHT22;9999;48.780;9.146;2023-06-22T05:31:05;20.10;99.90
7512;DHT22;9999;48.780;9.146;2023-06-22T05:33:32;20.10;99.90
7512;DHT22;9999;48.780;9.146;2023-06-22T05:35:58;20.20;99.90
7512;DHT22;9999;48.780;9.146;2023-06-22T05:38:25;20.20;99.90
7512;DHT22;9999;48.780;9.146;2023-06-22T05:40:52;20.20;99.90
7512;DHT22;9999;48.780;9.146;2023-06-22T05:43:20;20.30;99.90
7512;DHT22;9999;48.780;9.146;2023-06-22T05:45:47;20.30;99.90
7512;DHT22;9999;48.780;9.146;2023-06-22T05:48:14;20.40;99.90
7512;DHT22;9999;48.780;9.146;2023-06-22T05:50:41;20.40;99.90
7512;DHT22;9999;48.780;9.146;2023-06-22T05:53:11;20.50;99.90
7512;DHT22;9999;48.780;9.146;2023-06-22T05:55:38;20.50;99.90
7512;DHT22;9999;48.780;9.146;2023-06-22T05:58:05;20.40;99.90
7512;DHT22;9999;48.780;9.146;2023-06-22T06:00:33;20.50;99.90
7512;DHT22;9999;48.780;9.146;2023-06-22T06:03:00;20.60;99.90
7512;DHT22;9999;48.780;9.146;2023-06-22T06:05:29;20.50;99.90
7512;DHT22;9999;48.780;9.146;2023-06-22T06:07:56;20.40;99.90
7512;DHT22;9999;48.780;9.146;2023-06-22T06:10:23;20.50;99.90
7512;DHT22;9999;48.780;9.146;2023-06-22T06:12:50;20.50;99.90
7512;DHT22;9999;48.780;9.146;2023-06-22T06:15:17;20.50;99.90
7512;DHT22;9999;48.780;9.146;2023-06-22T06:17:50;20.60;99.90
7512;DHT22;9999;48.780;9.146;2023-06-22T06:20:20;20.60;99.90
7512;DHT22;9999;48.780;9.146;2023-06-22T06:22:47;20.70;99.90
7512;DHT22;9999;48.780;9.146;2023-06-22T06:25:14;20.80;99.90
7512;DHT22;9999;48.780;9.146;2023-06-22T06:27:42;20.90;99.90
7512;DHT22;9999;48.780;9.146;2023-06-22T06:30:10;21.00;99.90
7512;DHT22;9999;48.780;9.146;2023-06-22T06:32:38;21.00;99.90
7512;DHT22;9999;48.780;9.146;2023-06-22T06:35:07;21.20;99.90
7512;DHT22;9999;48.780;9.146;2023-06-22T06:37:36;21.40;99.90
7512;DHT22;9999;48.780;9.146;2023-06-22T06:40:04;21.50;99.90
7512;DHT22;9999;48.780;9.146;2023-06-22T06:42:33;21.60;99.90
7512;DHT22;9999;48.780;9.146;2023-06-22T06:45:00;21.80;99.90
7512;DHT22;9999;48.780;9.146;2023-06-22T06:47:27;21.80;99.90
7512;DHT22;9999;48.780;9.146;2023-06-22T06:49:53;21.80;99.90
7512;DHT22;9999;48.780;9.146;2023-06-22T06:52:22;21.90;99.90
7512;DHT22;9999;48.780;9.146;2023-06-22T06:54:52;22.00;99.90
7512;DHT22;9999;48.780;9.146;2023-06-22T06:57:18;22.00;99.90
7512;DHT22;9999;48.780;9.146;2023-06-22T06:59:46;22.20;99.90
7512;DHT22;9999;48.780;9.146;2023-06-22T07:02:13;22.40;99.90
7512;DHT22;9999;48.780;9.146;2023-06-22T07:04:40;22.50;99.90
7512;DHT22;9999;48.780;9.146;2023-06-22T07:07:07;22.70;99.90
7512;DHT22;9999;48.780;9.146;2023-06-22T07:09:35;22.80;99.90
7512;DHT22;9999;48.780;9.146;2023-06-22T07:12:02;22.90;99.90
7512;DHT22;9999;48.780;9.146;2023-06-22T07:14:29;23.10;99.90
7512;DHT22;9999;48.780;9.146;2023-06-22T07:16:57;23.20;99.90
7512;DHT22;9999;48.780;9.146;2023-06-22T07:19:25;23.40;99.90
7512;DHT22;9999;48.780;9.146;2023-06-22T07:21:53;23.60;99.90
7512;DHT22;9999;48.780;9.146;2023-06-22T07:24:20;23.70;99.90
7512;DHT22;9999;48.780;9.146;2023-06-22T07:26:48;23.90;99.90
7512;DHT22;9999;48.780;9.146;2023-06-22T07:29:16;23.80;99.90
7512;DHT22;9999;48.780;9.146;2023-06-22T07:31:43;23.90;99.90
7512;DHT22;9999;48.780;9.146;2023-06-22T07:34:10;24.10;99.90
7512;DHT22;9999;48.780;9.146;2023-06-22T07:36:37;24.20;99.90
7512;DHT22;9999;48.780;9.146;2023-06-22T07:39:04;24.60;99.90
7512;DHT22;9999;48.780;9.146;2023-06-22T07:41:31;24.70;99.90
7512;DHT22;9999;48.780;9.146;2023-06-22T07:44:00;24.80;99.90
7512;DHT22;9999;48.780;9.146;2023-06-22T07:46:30;25.00;99.90
7512;DHT22;9999;48.780;9.146;2023-06-22T07:48:59;25.00;99.90
7512;DHT22;9999;48.780;9.146;2023-06-22T07:51:27;25.20;99.90
7512;DHT22;9999;48.780;9.146;2023-06-22T07:53:54;25.50;99.90
7512;DHT22;9999;48.780;9.146;2023-06-22T07:56:21;25.50;99.90
7512;DHT22;9999;48.780;9.146;2023-06-22T07:58:48;25.60;99.90
7512;DHT22;9999;48.780;9.146;2023-06-22T08:01:16;25.90;99.90
7512;DHT22;9999;48.780;9.146;2023-06-22T08:03:46;26.00;99.90
7512;DHT22;9999;48.780;9.146;2023-06-22T08:06:13;26.20;99.90
7512;DHT22;9999;48.780;9.146;2023-06-22T08:08:40;26.20;99.90
7512;DHT22;9999;48.780;9.146;2023-06-22T08:11:08;26.40;99.90
7512;DHT22;9999;48.780;9.146;2023-06-22T08:13:35;26.60;99.90
7512;DHT22;9999;48.780;9.146;2023-06-22T08:16:02;26.50;99.90
7512;DHT22;9999;48.780;9.146;2023-06-22T08:18:30;26.80;99.90
7512;DHT22;9999;48.780;9.146;2023-06-22T08:20:57;27.00;99.90
7512;DHT22;9999;48.780;9.146;2023-06-22T08:23:24;27.30;99.90
7512;DHT22;9999;48.780;9.146;2023-06-22T08:25:51;27.10;99.90
7512;DHT22;9999;48.780;9.146;2023-06-22T08:28:17;27.10;99.90
7512;DHT22;9999;48.780;9.146;2023-06-22T08:30:44;27.00;99.90
7512;DHT22;9999;48.780;9.146;2023-06-22T08:33:11;27.00;99.90
7512;DHT22;9999;48.780;9.146;2023-06-22T08:35:39;26.90;99.90
7512;DHT22;9999;48.780;9.146;2023-06-22T08:38:24;26.80;99.90
7512;DHT22;9999;48.780;9.146;2023-06-22T08:40:51;26.70;99.90
7512;DHT22;9999;48.780;9.146;2023-06-22T08:43:18;26.60;99.90
7512;DHT22;9999;48.780;9.146;2023-06-22T08:45:45;26.60;99.90
7512;DHT22;9999;48.780;9.146;2023-06-22T08:48:12;26.30;99.90
7512;DHT22;9999;48.780;9.146;2023-06-22T08:50:40;26.40;99.90
7512;DHT22;9999;48.780;9.146;2023-06-22T08:53:07;26.70;99.90
7512;DHT22;9999;48.780;9.146;2023-06-22T08:55:34;27.00;99.90
7512;DHT22;9999;48.780;9.146;2023-06-22T08:58:01;27.20;99.90
7512;DHT22;9999;48.780;9.146;2023-06-22T09:00:29;27.40;99.90
7512;DHT22;9999;48.780;9.146;2023-06-22T09:03:00;27.40;99.90
7512;DHT22;9999;48.780;9.146;2023-06-22T09:05:27;27.60;99.90
7512;DHT22;9999;48.780;9.146;2023-06-22T09:07:56;27.80;99.90
7512;DHT22;9999;48.780;9.146;2023-06-22T09:10:25;27.50;99.90
7512;DHT22;9999;48.780;9.146;2023-06-22T09:12:52;27.80;99.90
7512;DHT22;9999;48.780;9.146;2023-06-22T09:15:19;27.50;99.90
7512;DHT22;9999;48.780;9.146;2023-06-22T09:17:46;27.60;99.90
7512;DHT22;9999;48.780;9.146;2023-06-22T09:20:47;27.40;99.90
7512;DHT22;9999;48.780;9.146;2023-06-22T09:23:16;27.70;99.90
7512;DHT22;9999;48.780;9.146;2023-06-22T09:25:44;28.20;99.90
7512;DHT22;9999;48.780;9.146;2023-06-22T09:28:13;28.50;99.90
7512;DHT22;9999;48.780;9.146;2023-06-22T09:30:42;28.70;99.90
7512;DHT22;9999;48.780;9.146;2023-06-22T09:33:09;29.10;99.90
7512;DHT22;9999;48.780;9.146;2023-06-22T09:35:36;29.40;99.90
7512;DHT22;9999;48.780;9.146;2023-06-22T09:38:03;29.40;99.90
7512;DHT22;9999;48.780;9.146;2023-06-22T09:40:31;29.40;99.90
7512;DHT22;9999;48.780;9.146;2023-06-22T09:43:01;29.60;99.90
7512;DHT22;9999;48.780;9.146;2023-06-22T09:45:27;29.70;99.90
7512;DHT22;9999;48.780;9.146;2023-06-22T09:47:55;30.00;99.90
7512;DHT22;9999;48.780;9.146;2023-06-22T09:50:21;30.10;99.90
7512;DHT22;9999;48.780;9.146;2023-06-22T09:52:48;30.20;99.90
7512;DHT22;9999;48.780;9.146;2023-06-22T09:55:20;30.20;99.90
7512;DHT22;9999;48.780;9.146;2023-06-22T09:57:48;30.10;99.90
7512;DHT22;9999;48.780;9.146;2023-06-22T10:00:17;29.90;99.90
7512;DHT22;9999;48.780;9.146;2023-06-22T10:02:44;29.80;99.90
7512;DHT22;9999;48.780;9.146;2023-06-22T10:05:11;29.70;99.90
7512;DHT22;9999;48.780;9.146;2023-06-22T10:07:39;29.90;99.90
7512;DHT22;9999;48.780;9.146;2023-06-22T10:10:09;30.10;99.90
7512;DHT22;9999;48.780;9.146;2023-06-22T10:12:36;29.90;99.90
7512;DHT22;9999;48.780;9.146;2023-06-22T10:15:05;29.70;99.90
7512;DHT22;9999;48.780;9.146;2023-06-22T10:17:32;29.50;99.90
7512;DHT22;9999;48.780;9.146;2023-06-22T10:20:00;29.10;99.90
7512;DHT22;9999;48.780;9.146;2023-06-22T10:22:31;29.10;99.90
7512;DHT22;9999;48.780;9.146;2023-06-22T10:24:59;29.00;99.90
7512;DHT22;9999;48.780;9.146;2023-06-22T10:27:26;29.10;99.90
7512;DHT22;9999;48.780;9.146;2023-06-22T10:29:52;29.40;99.90
7512;DHT22;9999;48.780;9.146;2023-06-22T10:32:21;29.40;99.90
7512;DHT22;9999;48.780;9.146;2023-06-22T10:34:51;29.40;99.90
7512;DHT22;9999;48.780;9.146;2023-06-22T10:37:19;29.70;99.90
7512;DHT22;9999;48.780;9.146;2023-06-22T10:39:45;29.70;99.90
7512;DHT22;9999;48.780;9.146;2023-06-22T10:42:12;30.00;99.90
7512;DHT22;9999;48.780;9.146;2023-06-22T10:44:40;30.40;99.90
7512;DHT22;9999;48.780;9.146;2023-06-22T10:47:10;30.60;99.90
7512;DHT22;9999;48.780;9.146;2023-06-22T10:49:39;30.50;99.90
7512;DHT22;9999;48.780;9.146;2023-06-22T10:52:07;30.60;99.90
7512;DHT22;9999;48.780;9.146;2023-06-22T10:54:35;30.50;99.90
7512;DHT22;9999;48.780;9.146;2023-06-22T10:57:02;30.20;99.90
7512;DHT22;9999;48.780;9.146;2023-06-22T10:59:30;30.00;99.90
7512;DHT22;9999;48.780;9.146;2023-06-22T11:01:57;30.00;99.90
7512;DHT22;9999;48.780;9.146;2023-06-22T11:04:24;30.00;99.90
7512;DHT22;9999;48.780;9.146;2023-06-22T11:06:53;29.90;99.90
7512;DHT22;9999;48.780;9.146;2023-06-22T11:09:19;30.00;99.90
7512;DHT22;9999;48.780;9.146;2023-06-22T11:11:47;29.80;99.90
7512;DHT22;9999;48.780;9.146;2023-06-22T11:14:14;29.90;99.90
7512;DHT22;9999;48.780;9.146;2023-06-22T11:16:41;29.90;99.90
7512;DHT22;9999;48.780;9.146;2023-06-22T11:19:08;29.90;99.90
7512;DHT22;9999;48.780;9.146;2023-06-22T11:21:35;29.90;99.90
7512;DHT22;9999;48.780;9.146;2023-06-22T11:24:03;29.70;99.90
7512;DHT22;9999;48.780;9.146;2023-06-22T11:26:30;29.60;99.90
7512;DHT22;9999;48.780;9.146;2023-06-22T11:28:58;29.30;99.90
7512;DHT22;9999;48.780;9.146;2023-06-22T11:31:25;29.30;99.90
7512;DHT22;9999;48.780;9.146;2023-06-22T11:33:52;29.30;99.90
7512;DHT22;9999;48.780;9.146;2023-06-22T11:36:19;29.30;99.90
7512;DHT22;9999;48.780;9.146;2023-06-22T11:38:46;29.10;99.90
7512;DHT22;9999;48.780;9.146;2023-06-22T11:41:15;29.30;99.90
7512;DHT22;9999;48.780;9.146;2023-06-22T11:43:42;29.30;99.90
7512;DHT22;9999;48.780;9.146;2023-06-22T11:46:09;29.30;99.90
7512;DHT22;9999;48.780;9.146;2023-06-22T11:48:36;29.20;99.90
7512;DHT22;9999;48.780;9.146;2023-06-22T11:51:03;28.80;99.90
7512;DHT22;9999;48.780;9.146;2023-06-22T11:53:32;28.80;99.90
7512;DHT22;9999;48.780;9.146;2023-06-22T11:55:59;28.70;99.90
7512;DHT22;9999;48.780;9.146;2023-06-22T11:58:28;28.80;99.90
7512;DHT22;9999;48.780;9.146;2023-06-22T12:00:55;28.70;99.90
7512;DHT22;9999;48.780;9.146;2023-06-22T12:03:21;28.50;99.90
7512;DHT22;9999;48.780;9.146;2023-06-22T12:05:49;28.50;99.90
7512;DHT22;9999;48.780;9.146;2023-06-22T12:08:16;28.40;99.90
7512;DHT22;9999;48.780;9.146;2023-06-22T12:10:44;28.30;99.90
7512;DHT22;9999;48.780;9.146;2023-06-22T12:13:10;28.30;99.90
7512;DHT22;9999;48.780;9.146;2023-06-22T12:15:42;28.20;99.90
7512;DHT22;9999;48.780;9.146;2023-06-22T12:18:08;28.30;99.90
7512;DHT22;9999;48.780;9.146;2023-06-22T12:20:37;28.00;99.90
7512;DHT22;9999;48.780;9.146;2023-06-22T12:23:04;28.10;99.90
7512;DHT22;9999;48.780;9.146;2023-06-22T12:25:31;28.10;99.90
7512;DHT22;9999;48.780;9.146;2023-06-22T12:27:57;28.10;99.90
7512;DHT22;9999;48.780;9.146;2023-06-22T12:30:24;28.40;99.90
7512;DHT22;9999;48.780;9.146;2023-06-22T12:32:52;28.80;99.90
7512;DHT22;9999;48.780;9.146;2023-06-22T12:35:19;29.00;99.90
7512;DHT22;9999;48.780;9.146;2023-06-22T12:37:46;29.00;99.90
7512;DHT22;9999;48.780;9.146;2023-06-22T12:40:13;28.80;99.90
7512;DHT22;9999;48.780;9.146;2023-06-22T12:42:40;28.50;99.90
7512;DHT22;9999;48.780;9.146;2023-06-22T12:45:08;28.40;99.90
7512;DHT22;9999;48.780;9.146;2023-06-22T12:47:35;28.30;99.90
7512;DHT22;9999;48.780;9.146;2023-06-22T12:50:04;28.40;99.90
7512;DHT22;9999;48.780;9.146;2023-06-22T12:52:31;28.40;99.90
7512;DHT22;9999;48.780;9.146;2023-06-22T12:54:58;28.60;99.90
7512;DHT22;9999;48.780;9.146;2023-06-22T12:57:25;28.60;99.90
7512;DHT22;9999;48.780;9.146;2023-06-22T12:59:52;28.60;99.90
7512;DHT22;9999;48.780;9.146;2023-06-22T13:02:19;28.50;99.90
7512;DHT22;9999;48.780;9.146;2023-06-22T13:04:46;28.50;99.90
7512;DHT22;9999;48.780;9.146;2023-06-22T13:07:14;28.40;99.90
7512;DHT22;9999;48.780;9.146;2023-06-22T13:09:41;28.30;99.90
7512;DHT22;9999;48.780;9.146;2023-06-22T13:12:08;28.40;99.90
7512;DHT22;9999;48.780;9.146;2023-06-22T13:14:35;28.50;99.90
7512;DHT22;9999;48.780;9.146;2023-06-22T13:17:02;28.40;99.90
7512;DHT22;9999;48.780;9.146;2023-06-22T13:19:31;28.40;99.90
7512;DHT22;9999;48.780;9.146;2023-06-22T13:22:00;28.50;99.90
7512;DHT22;9999;48.780;9.146;2023-06-22T13:24:29;28.60;99.90
7512;DHT22;9999;48.780;9.146;2023-06-22T13:26:56;28.60;99.90
7512;DHT22;9999;48.780;9.146;2023-06-22T13:29:23;28.70;99.90
7512;DHT22;9999;48.780;9.146;2023-06-22T13:31:49;28.80;99.90
7512;DHT22;9999;48.780;9.146;2023-06-22T13:34:16;28.80;99.90
7512;DHT22;9999;48.780;9.146;2023-06-22T13:36:43;29.00;99.90
7512;DHT22;9999;48.780;9.146;2023-06-22T13:39:10;28.90;99.90
7512;DHT22;9999;48.780;9.146;2023-06-22T13:41:38;28.90;99.90
7512;DHT22;9999;48.780;9.146;2023-06-22T13:44:04;29.00;99.90
7512;DHT22;9999;48.780;9.146;2023-06-22T13:46:31;29.00;99.90
7512;DHT22;9999;48.780;9.146;2023-06-22T13:48:58;29.00;99.90
7512;DHT22;9999;48.780;9.146;2023-06-22T13:51:25;29.20;99.90
7512;DHT22;9999;48.780;9.146;2023-06-22T13:53:51;29.20;99.90
7512;DHT22;9999;48.780;9.146;2023-06-22T13:56:19;29.10;99.90
7512;DHT22;9999;48.780;9.146;2023-06-22T13:58:47;29.20;99.90
7512;DHT22;9999;48.780;9.146;2023-06-22T14:01:14;29.30;99.90
7512;DHT22;9999;48.780;9.146;2023-06-22T14:03:40;29.30;99.90
7512;DHT22;9999;48.780;9.146;2023-06-22T14:06:07;29.40;99.90
7512;DHT22;9999;48.780;9.146;2023-06-22T14:08:36;29.50;99.90
7512;DHT22;9999;48.780;9.146;2023-06-22T14:11:04;29.40;99.90
7512;DHT22;9999;48.780;9.146;2023-06-22T14:13:36;29.50;99.90
7512;DHT22;9999;48.780;9.146;2023-06-22T14:16:18;29.70;99.90
7512;DHT22;9999;48.780;9.146;2023-06-22T14:18:45;29.90;99.90
7512;DHT22;9999;48.780;9.146;2023-06-22T14:21:13;30.10;99.90
7512;DHT22;9999;48.780;9.146;2023-06-22T14:23:45;30.20;99.90
7512;DHT22;9999;48.780;9.146;2023-06-22T14:26:16;30.40;99.90
7512;DHT22;9999;48.780;9.146;2023-06-22T14:28:48;30.30;99.90
7512;DHT22;9999;48.780;9.146;2023-06-22T14:31:18;30.10;99.90
7512;DHT22;9999;48.780;9.146;2023-06-22T14:33:47;30.10;99.90
7512;DHT22;9999;48.780;9.146;2023-06-22T14:36:15;30.10;99.90
7512;DHT22;9999;48.780;9.146;2023-06-22T14:38:42;30.10;99.90
7512;DHT22;9999;48.780;9.146;2023-06-22T14:41:09;30.20;99.90
7512;DHT22;9999;48.780;9.146;2023-06-22T14:43:36;30.20;99.90
7512;DHT22;9999;48.780;9.146;2023-06-22T14:46:06;30.50;99.90
7512;DHT22;9999;48.780;9.146;2023-06-22T14:48:34;30.70;99.90
7512;DHT22;9999;48.780;9.146;2023-06-22T14:51:01;30.80;98.90
7512;DHT22;9999;48.780;9.146;2023-06-22T14:53:28;30.90;99.80
7512;DHT22;9999;48.780;9.146;2023-06-22T14:55:55;31.00;96.20
7512;DHT22;9999;48.780;9.146;2023-06-22T14:58:22;31.10;99.70
7512;DHT22;9999;48.780;9.146;2023-06-22T15:00:49;31.20;96.60
7512;DHT22;9999;48.780;9.146;2023-06-22T15:03:16;31.20;84.50
7512;DHT22;9999;48.780;9.146;2023-06-22T15:05:48;31.10;83.20
7512;DHT22;9999;48.780;9.146;2023-06-22T15:08:15;30.80;76.90
7512;DHT22;9999;48.780;9.146;2023-06-22T15:10:42;30.70;76.80
7512;DHT22;9999;48.780;9.146;2023-06-22T15:13:08;30.50;75.00
7512;DHT22;9999;48.780;9.146;2023-06-22T15:15:35;30.60;76.00
7512;DHT22;9999;48.780;9.146;2023-06-22T15:18:02;30.70;79.80
7512;DHT22;9999;48.780;9.146;2023-06-22T15:20:29;30.70;75.70
7512;DHT22;9999;48.780;9.146;2023-06-22T15:22:58;30.80;71.00
7512;DHT22;9999;48.780;9.146;2023-06-22T15:25:24;30.80;70.10
7512;DHT22;9999;48.780;9.146;2023-06-22T15:27:51;30.80;70.20
7512;DHT22;9999;48.780;9.146;2023-06-22T15:30:19;30.80;69.30
7512;DHT22;9999;48.780;9.146;2023-06-22T15:32:49;31.00;74.50
7512;DHT22;9999;48.780;9.146;2023-06-22T15:35:16;30.80;73.70
7512;DHT22;9999;48.780;9.146;2023-06-22T15:37:44;30.90;66.40
7512;DHT22;9999;48.780;9.146;2023-06-22T15:40:12;31.00;67.30
7512;DHT22;9999;48.780;9.146;2023-06-22T15:42:40;31.00;69.10
7512;DHT22;9999;48.780;9.146;2023-06-22T15:45:08;30.90;72.80
7512;DHT22;9999;48.780;9.146;2023-06-22T15:47:35;30.80;70.20
7512;DHT22;9999;48.780;9.146;2023-06-22T15:50:03;30.80;68.10
7512;DHT22;9999;48.780;9.146;2023-06-22T15:52:30;30.80;66.60
7512;DHT22;9999;48.780;9.146;2023-06-22T15:54:56;30.80;66.20
7512;DHT22;9999;48.780;9.146;2023-06-22T15:57:27;30.60;66.40
7512;DHT22;9999;48.780;9.146;2023-06-22T15:59:54;30.40;68.90
7512;DHT22;9999;48.780;9.146;2023-06-22T16:02:21;30.20;68.10
7512;DHT22;9999;48.780;9.146;2023-06-22T16:04:48;30.00;69.80
7512;DHT22;9999;48.780;9.146;2023-06-22T16:07:16;29.90;71.50